Time;durP1;ratioP1;P1;durP2;ratioP2;P2;SDS_P1;SDS_P2;PMS_P1;PMS_P2;Temp;Humidity;BMP_temperature;BMP_pressure;BME280_temperature;BME280_humidity;BME280_pressure;Samples;Min_cycle;Max_cycle;Signal;HPM_P1;HPM_P2
2023/06/02 00:01:13;;;;;;;6.40;5.10;;;14.90;71.70;;;;;;5033565;28;20778;-77
2023/06/02 00:03:41;;;;;;;7.25;5.00;;;15.00;71.70;;;;;;5052121;28;20427;-74
2023/06/02 00:06:09;;;;;;;6.57;5.57;;;15.00;71.00;;;;;;5043232;28;20420;-75
2023/06/02 00:08:38;;;;;;;6.47;4.80;;;15.00;70.40;;;;;;5041993;28;20992;-75
2023/06/02 00:11:05;;;;;;;7.18;5.05;;;14.90;70.20;;;;;;5031680;28;20913;-76
2023/06/02 00:13:33;;;;;;;7.05;4.72;;;14.90;70.00;;;;;;5044231;28;20528;-76
2023/06/02 00:16:00;;;;;;;7.00;4.85;;;14.90;69.20;;;;;;5036441;28;20416;-77
2023/06/02 00:18:28;;;;;;;7.40;4.90;;;14.90;69.40;;;;;;5039434;28;20431;-76
2023/06/02 00:20:56;;;;;;;6.22;4.60;;;14.90;68.90;;;;;;5045901;28;20502;-74
2023/06/02 00:23:23;;;;;;;5.87;5.00;;;14.90;69.90;;;;;;5031892;28;20793;-75
2023/06/02 00:25:50;;;;;;;6.85;5.80;;;14.80;68.80;;;;;;5032309;28;20434;-74
2023/06/02 00:28:17;;;;;;;6.20;5.60;;;14.80;68.90;;;;;;5051698;28;20427;-75
2023/06/02 00:30:43;;;;;;;7.03;6.30;;;14.80;68.90;;;;;;5051159;28;20413;-76
2023/06/02 00:33:10;;;;;;;6.72;6.03;;;14.80;68.50;;;;;;5038841;28;20425;-76
2023/06/02 00:35:38;;;;;;;6.60;6.00;;;14.70;68.90;;;;;;5037974;28;20492;-75
2023/06/02 00:38:05;;;;;;;7.97;6.00;;;14.70;68.70;;;;;;5042661;28;20462;-73
2023/06/02 00:40:33;;;;;;;6.78;6.10;;;14.70;68.50;;;;;;5032110;28;20487;-76
2023/06/02 00:43:01;;;;;;;6.10;5.50;;;14.70;68.00;;;;;;5032270;28;20415;-75
2023/06/02 00:45:27;;;;;;;6.95;6.25;;;14.70;68.30;;;;;;5044900;28;20434;-76
2023/06/02 00:47:55;;;;;;;7.80;6.60;;;14.60;68.10;;;;;;5031735;28;20781;-76
2023/06/02 00:50:22;;;;;;;6.53;5.93;;;14.60;67.90;;;;;;5050572;28;20424;-76
2023/06/02 00:52:55;;;;;;;6.13;5.53;;;14.60;68.40;;;;;;5038989;28;20509;-76
2023/06/02 00:55:22;;;;;;;7.07;5.22;;;14.60;68.40;;;;;;5043662;28;20492;-75
2023/06/02 00:57:51;;;;;;;6.47;5.28;;;14.60;68.40;;;;;;5038723;28;21182;-74
2023/06/02 01:00:19;;;;;;;7.60;5.90;;;14.60;68.30;;;;;;5043972;28;20432;-75
2023/06/02 01:02:47;;;;;;;7.00;5.60;;;14.60;68.10;;;;;;5042186;28;20499;-74
2023/06/02 01:05:14;;;;;;;6.00;5.32;;;14.50;68.40;;;;;;5048343;28;20461;-78
2023/06/02 01:07:44;;;;;;;7.40;5.50;;;14.50;68.20;;;;;;5041530;28;20917;-76
2023/06/02 01:10:15;;;;;;;7.43;5.50;;;14.40;68.00;;;;;;5040419;28;20421;-74
2023/06/02 01:12:43;;;;;;;7.05;5.28;;;14.40;68.30;;;;;;5043948;28;20472;-75
2023/06/02 01:15:10;;;;;;;6.47;5.25;;;14.40;68.40;;;;;;5035913;28;20434;-74
2023/06/02 01:17:37;;;;;;;7.00;5.60;;;14.40;68.20;;;;;;5054370;28;20417;-73
2023/06/02 01:20:08;;;;;;;5.60;5.10;;;14.30;67.90;;;;;;5072274;28;20460;-73
2023/06/02 01:22:40;;;;;;;6.70;5.20;;;14.30;68.30;;;;;;5043886;28;20430;-74
2023/06/02 01:25:19;;;;;;;5.55;5.03;;;14.20;68.00;;;;;;5040945;28;20427;-75
2023/06/02 01:27:46;;;;;;;5.60;4.60;;;14.20;67.80;;;;;;5032087;28;20526;-75
2023/06/02 01:30:14;;;;;;;5.30;4.60;;;14.20;68.10;;;;;;5031643;28;20430;-75
2023/06/02 01:32:48;;;;;;;6.22;4.55;;;14.20;68.10;;;;;;5030480;28;20484;-75
2023/06/02 01:35:19;;;;;;;4.93;4.10;;;14.20;68.40;;;;;;5037291;28;20431;-75
2023/06/02 01:37:54;;;;;;;6.15;4.47;;;14.20;68.10;;;;;;5030442;28;20476;-75
2023/06/02 01:40:24;;;;;;;6.10;4.50;;;14.20;68.00;;;;;;5044560;28;20540;-76
2023/06/02 01:42:52;;;;;;;5.20;4.70;;;14.10;68.00;;;;;;5050546;28;20463;-73
2023/06/02 01:45:21;;;;;;;6.90;5.20;;;14.10;68.00;;;;;;5034775;28;21070;-75
2023/06/02 01:47:48;;;;;;;6.15;4.45;;;14.10;67.90;;;;;;5038884;28;20436;-75
2023/06/02 01:50:15;;;;;;;5.00;4.30;;;14.10;68.20;;;;;;5041751;28;20418;-75
2023/06/02 01:52:41;;;;;;;4.85;4.35;;;14.10;68.00;;;;;;5051846;28;20441;-75
2023/06/02 01:55:09;;;;;;;5.60;4.28;;;14.10;68.20;;;;;;5034323;28;20429;-74
2023/06/02 01:57:37;;;;;;;8.27;4.70;;;14.10;67.80;;;;;;5033588;28;20438;-74
2023/06/02 02:00:05;;;;;;;5.10;4.57;;;14.10;67.50;;;;;;5046180;28;20430;-75
2023/06/02 02:02:32;;;;;;;6.85;5.05;;;14.00;67.80;;;;;;5034908;28;20421;-74
2023/06/02 02:04:59;;;;;;;6.88;4.30;;;14.00;67.90;;;;;;5041194;28;20433;-73
2023/06/02 02:07:25;;;;;;;6.15;4.90;;;14.00;67.80;;;;;;5032545;28;20902;-74
2023/06/02 02:09:52;;;;;;;5.03;4.53;;;14.00;67.60;;;;;;5044677;28;20432;-74
2023/06/02 02:12:19;;;;;;;5.60;4.70;;;14.00;67.50;;;;;;5049199;28;20858;-74
2023/06/02 02:14:50;;;;;;;5.60;4.70;;;14.00;67.80;;;;;;5035126;28;20430;-74
2023/06/02 02:17:17;;;;;;;4.90;4.40;;;14.00;67.70;;;;;;5041154;28;20450;-74
2023/06/02 02:19:44;;;;;;;7.00;4.95;;;14.00;68.10;;;;;;5040921;28;20441;-75
2023/06/02 02:22:11;;;;;;;5.10;4.60;;;14.00;68.10;;;;;;5047806;28;20799;-76
2023/06/02 02:24:38;;;;;;;5.05;4.50;;;14.00;67.50;;;;;;5031410;28;20495;-75
2023/06/02 02:27:08;;;;;;;6.35;4.45;;;14.00;67.30;;;;;;5028968;28;20426;-75
2023/06/02 02:29:36;;;;;;;5.57;4.90;;;14.00;67.30;;;;;;5028958;28;20857;-75
2023/06/02 02:32:05;;;;;;;7.20;4.80;;;14.00;67.60;;;;;;5041132;28;20764;-75
2023/06/02 02:34:32;;;;;;;6.23;5.33;;;14.00;67.80;;;;;;5043879;28;21252;-74
2023/06/02 02:37:01;;;;;;;6.05;5.45;;;14.00;67.70;;;;;;5054544;28;21029;-76
2023/06/02 02:39:28;;;;;;;6.40;5.05;;;14.00;67.40;;;;;;5042732;28;20437;-74
2023/06/02 02:41:55;;;;;;;5.30;4.80;;;14.00;67.40;;;;;;5038937;28;20458;-74
2023/06/02 02:44:22;;;;;;;6.43;4.90;;;14.00;67.90;;;;;;5042710;28;20430;-75
2023/06/02 02:46:49;;;;;;;5.20;4.70;;;13.90;67.80;;;;;;5042749;28;20803;-75
2023/06/02 02:49:17;;;;;;;5.22;4.70;;;13.90;67.90;;;;;;5039847;28;20434;-75
2023/06/02 02:51:43;;;;;;;5.33;4.80;;;13.90;68.10;;;;;;5041489;28;20419;-77
2023/06/02 02:54:10;;;;;;;6.20;4.63;;;13.90;67.90;;;;;;5028240;28;20429;-74
2023/06/02 02:56:39;;;;;;;5.70;4.70;;;13.90;67.40;;;;;;5031928;28;20434;-75
2023/06/02 02:59:06;;;;;;;6.72;4.80;;;13.90;67.10;;;;;;5033146;28;20475;-75
2023/06/02 03:01:33;;;;;;;5.65;4.88;;;13.90;67.10;;;;;;5035013;28;20909;-75
2023/06/02 03:04:00;;;;;;;5.28;4.60;;;13.90;67.00;;;;;;5038412;28;20435;-74
2023/06/02 03:06:31;;;;;;;6.78;4.80;;;13.80;66.90;;;;;;5034961;28;20444;-75
2023/06/02 03:08:59;;;;;;;5.63;4.57;;;13.80;66.80;;;;;;5047721;28;20425;-74
2023/06/02 03:11:26;;;;;;;6.60;4.90;;;13.80;66.80;;;;;;5045357;28;20486;-75
2023/06/02 03:13:53;;;;;;;6.20;4.40;;;13.80;66.80;;;;;;5045894;28;20433;-75
2023/06/02 03:16:20;;;;;;;5.32;4.30;;;13.80;66.80;;;;;;5028220;28;20504;-75
2023/06/02 03:18:47;;;;;;;5.75;5.20;;;13.70;67.10;;;;;;5028100;28;20454;-75
2023/06/02 03:21:14;;;;;;;5.00;4.50;;;13.80;66.50;;;;;;5037831;28;20473;-75
2023/06/02 03:23:42;;;;;;;7.07;5.13;;;13.70;66.60;;;;;;5038392;28;20806;-75
2023/06/02 03:26:11;;;;;;;7.43;5.20;;;13.70;66.40;;;;;;5048017;28;20423;-74
2023/06/02 03:28:39;;;;;;;6.70;5.37;;;13.70;65.90;;;;;;5042529;28;20540;-76
2023/06/02 03:31:06;;;;;;;5.10;4.60;;;13.70;66.10;;;;;;5043113;28;20465;-75
2023/06/02 03:33:32;;;;;;;5.75;4.97;;;13.60;66.00;;;;;;5049022;28;20425;-74
2023/06/02 03:35:59;;;;;;;5.47;4.97;;;13.60;66.20;;;;;;5040850;28;21449;-75
2023/06/02 03:38:26;;;;;;;6.03;4.90;;;13.50;66.40;;;;;;5035638;28;20441;-75
2023/06/02 03:40:54;;;;;;;5.80;5.20;;;13.50;66.00;;;;;;5025945;28;20726;-75
2023/06/02 03:43:21;;;;;;;6.53;5.38;;;13.50;66.00;;;;;;5030262;28;20429;-75
2023/06/02 03:45:48;;;;;;;5.63;5.10;;;13.40;66.00;;;;;;5029727;22;20429;-71
2023/06/02 03:48:14;;;;;;;5.88;5.28;;;13.40;65.90;;;;;;5023788;28;20798;-69
2023/06/02 03:50:41;;;;;;;6.03;5.53;;;13.40;66.40;;;;;;5022781;28;20797;-70
2023/06/02 03:53:08;;;;;;;5.85;5.03;;;13.40;66.00;;;;;;5028077;28;20906;-68
2023/06/02 03:55:35;;;;;;;8.57;5.80;;;13.50;66.00;;;;;;5028297;28;20742;-71
2023/06/02 03:58:03;;;;;;;7.97;6.10;;;13.50;65.90;;;;;;5016121;28;20429;-70
2023/06/02 04:00:30;;;;;;;6.70;6.10;;;13.40;65.50;;;;;;5016368;28;20970;-70
2023/06/02 04:02:57;;;;;;;8.32;6.03;;;13.40;65.50;;;;;;5016560;28;20420;-70
2023/06/02 04:05:24;;;;;;;7.55;5.70;;;13.40;66.20;;;;;;5018999;28;20437;-70
2023/06/02 04:07:52;;;;;;;6.82;5.72;;;13.40;66.00;;;;;;5017368;28;20902;-71
2023/06/02 04:10:19;;;;;;;6.25;5.70;;;13.40;65.90;;;;;;5019808;28;20421;-71
2023/06/02 04:12:46;;;;;;;9.25;6.53;;;13.30;65.70;;;;;;5024823;28;20419;-69
2023/06/02 04:15:14;;;;;;;7.78;7.07;;;13.30;65.80;;;;;;5019074;28;20444;-70
2023/06/02 04:17:41;;;;;;;7.18;6.30;;;13.30;65.30;;;;;;5016440;28;20943;-71
2023/06/02 04:20:08;;;;;;;7.95;6.80;;;13.20;65.50;;;;;;5020451;28;20571;-70
2023/06/02 04:22:35;;;;;;;7.47;6.70;;;13.20;65.60;;;;;;5015773;28;20507;-70
2023/06/02 04:25:02;;;;;;;7.53;6.73;;;13.10;66.20;;;;;;5016616;28;20433;-71
2023/06/02 04:27:29;;;;;;;6.65;6.05;;;13.20;66.30;;;;;;5020631;28;20415;-71
2023/06/02 04:29:56;;;;;;;8.98;6.55;;;13.20;66.40;;;;;;5016371;28;20428;-70
2023/06/02 04:32:24;;;;;;;8.07;7.38;;;13.20;66.00;;;;;;5014326;28;21179;-70
2023/06/02 04:34:51;;;;;;;10.00;7.00;;;13.30;65.80;;;;;;5014970;28;21073;-69
2023/06/02 04:37:18;;;;;;;7.72;6.85;;;13.20;65.70;;;;;;5015508;28;20485;-70
2023/06/02 04:39:47;;;;;;;9.98;6.63;;;13.30;66.30;;;;;;5015794;28;20517;-71
2023/06/02 04:42:13;;;;;;;7.22;6.53;;;13.30;66.20;;;;;;5017444;28;20493;-69
2023/06/02 04:44:42;;;;;;;8.18;6.13;;;13.30;66.20;;;;;;5017883;28;21738;-70
2023/06/02 04:47:09;;;;;;;7.22;6.53;;;13.40;65.90;;;;;;5038842;28;20433;-72
2023/06/02 04:49:37;;;;;;;7.05;6.20;;;13.40;66.10;;;;;;5061951;28;20432;-71
2023/06/02 04:52:05;;;;;;;10.70;6.60;;;13.40;65.00;;;;;;5052362;28;20423;-72
2023/06/02 04:54:32;;;;;;;6.90;6.20;;;13.50;65.00;;;;;;5052067;28;20736;-71
2023/06/02 04:56:58;;;;;;;8.00;6.00;;;13.40;64.40;;;;;;5062563;28;20431;-71
2023/06/02 04:59:25;;;;;;;11.33;6.23;;;13.40;64.30;;;;;;5054982;28;20873;-72
2023/06/02 05:01:52;;;;;;;6.83;5.60;;;13.40;64.00;;;;;;5053870;28;20432;-71
2023/06/02 05:04:19;;;;;;;7.30;5.10;;;13.40;64.00;;;;;;5060132;28;20454;-71
2023/06/02 05:06:48;;;;;;;7.22;5.63;;;13.30;64.40;;;;;;5056802;28;20510;-71
2023/06/02 05:09:14;;;;;;;7.00;5.50;;;13.30;64.40;;;;;;5056778;28;20894;-71
2023/06/02 05:11:43;;;;;;;8.20;5.43;;;13.30;63.80;;;;;;5057333;28;20415;-71
2023/06/02 05:14:09;;;;;;;10.20;7.20;;;13.40;64.20;;;;;;5058550;28;20435;-72
2023/06/02 05:16:36;;;;;;;8.57;6.00;;;13.40;64.20;;;;;;5053382;28;20900;-72
2023/06/02 05:19:04;;;;;;;6.18;5.50;;;13.40;63.60;;;;;;5058920;28;20774;-70
2023/06/02 05:21:31;;;;;;;8.38;5.35;;;13.40;63.90;;;;;;5049268;28;20595;-72
2023/06/02 05:23:59;;;;;;;8.73;5.63;;;13.40;62.90;;;;;;5054047;28;20415;-72
2023/06/02 05:26:26;;;;;;;7.00;5.35;;;13.40;63.40;;;;;;5053660;28;20452;-72
2023/06/02 05:28:53;;;;;;;7.75;4.85;;;13.30;63.20;;;;;;5056956;28;20518;-72
2023/06/02 05:31:20;;;;;;;6.95;5.10;;;13.40;63.00;;;;;;5054597;28;20939;-71
2023/06/02 05:33:47;;;;;;;8.75;5.70;;;13.40;63.00;;;;;;5058949;28;20587;-71
2023/06/02 05:36:14;;;;;;;7.30;5.53;;;13.40;62.70;;;;;;5057461;28;20427;-71
2023/06/02 05:38:42;;;;;;;7.80;5.37;;;13.40;63.10;;;;;;5045670;28;20868;-71
2023/06/02 05:41:10;;;;;;;8.75;7.35;;;13.40;62.90;;;;;;5058283;28;20466;-71
2023/06/02 05:43:37;;;;;;;6.70;5.80;;;13.40;62.90;;;;;;5051395;28;20522;-71
2023/06/02 05:46:04;;;;;;;7.38;6.43;;;13.40;62.70;;;;;;5064469;28;20423;-71
2023/06/02 05:48:31;;;;;;;10.68;6.05;;;13.50;63.20;;;;;;5060852;28;20438;-71
2023/06/02 05:50:57;;;;;;;6.88;5.20;;;13.50;62.40;;;;;;5056531;28;20854;-73
2023/06/02 05:53:24;;;;;;;8.63;5.20;;;13.50;62.30;;;;;;5051342;28;20426;-72
2023/06/02 05:55:51;;;;;;;7.30;5.20;;;13.60;62.00;;;;;;5064739;28;20416;-71
2023/06/02 05:58:20;;;;;;;9.85;4.80;;;13.60;61.90;;;;;;5045137;28;20432;-71
2023/06/02 06:00:46;;;;;;;8.30;5.40;;;13.60;61.80;;;;;;5054972;28;20528;-71
2023/06/02 06:03:14;;;;;;;8.77;5.10;;;13.70;61.90;;;;;;5057441;28;20459;-71
2023/06/02 06:05:41;;;;;;;6.60;4.90;;;13.70;62.20;;;;;;5052782;28;20509;-71
2023/06/02 06:08:07;;;;;;;6.40;4.45;;;13.70;61.60;;;;;;5052551;28;20754;-71
2023/06/02 06:10:34;;;;;;;8.23;4.72;;;13.70;61.40;;;;;;5058025;28;20422;-71
2023/06/02 06:13:01;;;;;;;6.53;4.55;;;13.70;61.40;;;;;;5058000;28;20477;-71
2023/06/02 06:15:29;;;;;;;7.78;4.90;;;13.70;61.20;;;;;;5053693;28;20451;-72
2023/06/02 06:17:56;;;;;;;6.38;4.82;;;13.80;60.80;;;;;;5061268;28;20428;-72
2023/06/02 06:20:22;;;;;;;8.60;5.30;;;13.90;60.60;;;;;;5051538;28;20436;-73
2023/06/02 06:22:49;;;;;;;6.20;4.90;;;13.90;61.20;;;;;;5052868;28;20423;-73
2023/06/02 06:25:16;;;;;;;7.80;5.50;;;14.00;60.10;;;;;;5058716;28;20450;-73
2023/06/02 06:27:42;;;;;;;7.97;4.78;;;14.00;60.40;;;;;;5057313;28;20448;-73
2023/06/02 06:30:10;;;;;;;9.00;5.10;;;14.00;60.60;;;;;;5057477;28;20435;-72
2023/06/02 06:32:38;;;;;;;8.93;5.00;;;14.10;60.20;;;;;;5062676;28;20462;-72
2023/06/02 06:35:06;;;;;;;8.15;5.53;;;14.10;60.30;;;;;;5055040;28;20526;-73
2023/06/02 06:37:32;;;;;;;6.93;4.50;;;14.10;60.40;;;;;;5053327;28;20486;-73
2023/06/02 06:39:59;;;;;;;9.03;4.70;;;14.10;60.20;;;;;;5052027;28;20859;-73
2023/06/02 06:42:26;;;;;;;7.47;4.53;;;14.20;60.20;;;;;;5055267;28;20527;-73
2023/06/02 06:44:53;;;;;;;9.45;5.10;;;14.30;60.20;;;;;;5057632;28;20415;-73
2023/06/02 06:47:19;;;;;;;9.05;4.97;;;14.30;60.20;;;;;;5048368;28;20429;-73
2023/06/02 06:49:49;;;;;;;8.43;4.60;;;14.40;60.10;;;;;;5059242;28;20498;-73
2023/06/02 06:52:15;;;;;;;8.13;4.93;;;14.50;59.20;;;;;;5052981;28;20505;-73
2023/06/02 06:54:42;;;;;;;8.35;4.95;;;14.50;58.90;;;;;;5059992;28;20461;-73
2023/06/02 06:57:10;;;;;;;11.38;5.32;;;14.50;58.10;;;;;;5057200;28;20412;-70
2023/06/02 06:59:37;;;;;;;7.03;4.50;;;14.50;57.80;;;;;;5047805;28;20408;-74
2023/06/02 07:02:04;;;;;;;8.00;4.30;;;14.60;57.60;;;;;;5057701;28;20432;-74
2023/06/02 07:04:31;;;;;;;7.40;4.80;;;14.70;58.40;;;;;;5055719;28;20438;-74
2023/06/02 07:06:59;;;;;;;8.20;4.95;;;14.80;58.00;;;;;;5061142;28;20443;-75
2023/06/02 07:09:26;;;;;;;11.30;5.50;;;14.90;56.90;;;;;;5056290;28;20426;-74
2023/06/02 07:11:52;;;;;;;8.05;4.75;;;15.00;57.20;;;;;;5046209;28;20440;-74
2023/06/02 07:14:19;;;;;;;10.45;5.38;;;15.20;57.20;;;;;;5058777;28;20421;-74
2023/06/02 07:16:48;;;;;;;7.70;4.40;;;15.40;56.10;;;;;;5054923;28;20897;-75
2023/06/02 07:19:15;;;;;;;5.05;4.22;;;15.40;56.00;;;;;;5056250;28;20431;-74
2023/06/02 07:21:42;;;;;;;6.80;4.27;;;15.40;55.30;;;;;;5056474;28;20424;-74
2023/06/02 07:24:10;;;;;;;7.10;4.85;;;15.40;54.60;;;;;;5054784;28;20430;-75
2023/06/02 07:26:36;;;;;;;8.43;5.03;;;15.30;54.70;;;;;;5057757;28;20427;-74
2023/06/02 07:29:03;;;;;;;7.20;5.37;;;15.30;55.70;;;;;;5056964;28;20417;-74
2023/06/02 07:31:30;;;;;;;9.50;5.37;;;15.30;56.00;;;;;;5055638;28;20547;-74
2023/06/02 07:33:58;;;;;;;7.70;5.05;;;15.20;55.20;;;;;;5051447;28;20415;-74
2023/06/02 07:36:24;;;;;;;8.38;4.80;;;15.20;56.20;;;;;;5062547;28;20427;-74
2023/06/02 07:38:51;;;;;;;11.02;6.88;;;15.20;55.90;;;;;;5056161;28;20420;-74
2023/06/02 07:41:20;;;;;;;8.90;5.70;;;15.30;55.80;;;;;;5053590;28;20428;-75
2023/06/02 07:43:47;;;;;;;8.65;5.28;;;15.30;55.20;;;;;;5043876;28;20949;-75
2023/06/02 07:46:14;;;;;;;9.18;5.53;;;15.30;55.40;;;;;;5056655;28;20778;-74
2023/06/02 07:48:41;;;;;;;9.65;5.50;;;15.40;55.20;;;;;;5060326;28;20921;-74
2023/06/02 07:51:08;;;;;;;8.95;5.20;;;15.40;55.40;;;;;;5059891;28;20430;-75
2023/06/02 07:53:34;;;;;;;8.95;5.45;;;15.40;55.70;;;;;;5050870;28;20422;-74
2023/06/02 07:56:01;;;;;;;7.50;5.10;;;15.50;55.50;;;;;;5049902;28;20844;-75
2023/06/02 07:58:29;;;;;;;8.10;4.90;;;15.70;55.30;;;;;;5056311;28;20413;-74
2023/06/02 08:00:56;;;;;;;7.95;5.47;;;15.70;53.40;;;;;;5057321;28;20419;-74
2023/06/02 08:03:23;;;;;;;7.90;5.80;;;15.90;53.40;;;;;;5060539;28;20457;-74
2023/06/02 08:05:50;;;;;;;8.80;5.80;;;16.00;53.00;;;;;;5047984;28;20419;-74
2023/06/02 08:08:17;;;;;;;6.72;5.10;;;16.10;52.00;;;;;;5058074;28;21087;-74
2023/06/02 08:10:44;;;;;;;11.60;4.90;;;16.20;52.30;;;;;;5048308;28;20423;-74
2023/06/02 08:13:11;;;;;;;16.67;6.00;;;16.30;52.40;;;;;;5053361;28;20423;-75
2023/06/02 08:15:39;;;;;;;16.52;5.53;;;16.40;52.00;;;;;;5053498;28;20791;-75
2023/06/02 08:18:13;;;;;;;9.52;5.50;;;16.60;51.60;;;;;;5055003;28;20520;-75
2023/06/02 08:20:42;;;;;;;5.95;4.85;;;16.90;50.40;;;;;;5056101;28;20413;-74
2023/06/02 08:23:09;;;;;;;8.85;5.90;;;17.00;49.30;;;;;;5058280;28;20496;-75
2023/06/02 08:25:37;;;;;;;8.40;5.30;;;17.10;48.70;;;;;;5049139;28;20535;-75
2023/06/02 08:28:05;;;;;;;8.80;5.53;;;17.00;48.50;;;;;;5060663;28;20503;-75
2023/06/02 08:30:32;;;;;;;8.27;5.40;;;17.00;48.60;;;;;;5052834;28;20778;-75
2023/06/02 08:33:02;;;;;;;8.32;5.35;;;17.00;48.30;;;;;;5058125;28;20518;-75
2023/06/02 08:35:29;;;;;;;9.27;6.60;;;16.90;48.20;;;;;;5053216;28;20425;-76
2023/06/02 08:37:56;;;;;;;8.02;6.10;;;16.80;47.80;;;;;;5059087;28;20412;-75
2023/06/02 08:40:26;;;;;;;10.88;6.20;;;16.60;48.30;;;;;;5053952;28;20499;-75
2023/06/02 08:42:53;;;;;;;8.98;5.47;;;16.50;49.50;;;;;;5067461;28;20473;-75
2023/06/02 08:45:22;;;;;;;7.78;5.72;;;16.60;50.10;;;;;;5057152;28;20899;-75
2023/06/02 08:47:54;;;;;;;8.82;5.90;;;16.80;49.60;;;;;;5058338;28;20429;-74
2023/06/02 08:50:28;;;;;;;8.30;5.13;;;17.00;49.10;;;;;;5046865;28;20449;-75
2023/06/02 08:52:56;;;;;;;11.00;5.80;;;17.20;49.20;;;;;;5061198;28;20486;-75
2023/06/02 08:55:24;;;;;;;8.95;5.75;;;17.30;49.00;;;;;;5058462;28;20417;-74
2023/06/02 08:57:51;;;;;;;8.73;5.50;;;17.40;47.90;;;;;;5063499;28;20858;-75
2023/06/02 09:00:19;;;;;;;9.80;5.70;;;17.50;47.10;;;;;;5050332;28;20523;-74
2023/06/02 09:02:48;;;;;;;7.88;5.40;;;17.60;47.00;;;;;;5058651;28;20801;-75
2023/06/02 09:05:16;;;;;;;8.63;5.00;;;17.60;45.70;;;;;;5047156;28;20803;-75
2023/06/02 09:07:45;;;;;;;7.03;5.70;;;17.70;46.90;;;;;;5062522;28;20905;-75
2023/06/02 09:10:29;;;;;;;8.13;5.88;;;17.90;47.30;;;;;;5058745;28;20443;-75
2023/06/02 09:12:56;;;;;;;8.60;5.70;;;18.10;46.00;;;;;;5061551;28;20925;-75
2023/06/02 09:15:25;;;;;;;8.35;5.50;;;18.30;45.30;;;;;;5045390;28;20539;-74
2023/06/02 09:17:52;;;;;;;8.07;5.40;;;18.40;45.40;;;;;;5059750;28;20837;-75
2023/06/02 09:20:19;;;;;;;8.15;5.30;;;18.50;44.80;;;;;;5057267;28;20438;-75
2023/06/02 09:22:57;;;;;;;8.70;5.80;;;18.60;44.50;;;;;;5053446;28;20420;-74
2023/06/02 09:25:25;;;;;;;6.95;5.70;;;18.60;44.90;;;;;;5048549;28;20438;-75
2023/06/02 09:27:52;;;;;;;8.45;5.70;;;18.70;44.40;;;;;;5060543;28;20481;-75
2023/06/02 09:30:19;;;;;;;8.02;5.18;;;18.90;44.60;;;;;;5049744;28;20921;-75
2023/06/02 09:32:53;;;;;;;6.80;4.75;;;19.00;43.90;;;;;;5061387;28;20459;-75
2023/06/02 09:35:36;;;;;;;7.35;5.93;;;19.10;43.80;;;;;;5059795;28;20500;-75
2023/06/02 09:38:07;;;;;;;6.50;4.82;;;19.10;43.20;;;;;;5058074;28;20419;-73
2023/06/02 09:40:35;;;;;;;7.68;4.90;;;19.00;42.70;;;;;;5057533;28;20445;-73
2023/06/02 09:43:04;;;;;;;8.02;5.25;;;19.00;43.20;;;;;;5062833;28;20415;-73
2023/06/02 09:45:31;;;;;;;8.07;5.60;;;19.10;44.00;;;;;;5058724;28;20616;-73
2023/06/02 09:47:58;;;;;;;8.50;6.50;;;19.40;43.20;;;;;;5081103;22;20852;-76
2023/06/02 09:50:32;;;;;;;7.15;4.97;;;19.70;42.30;;;;;;5051506;28;20915;-75
2023/06/02 09:53:05;;;;;;;9.30;5.97;;;20.10;40.80;;;;;;5064265;28;20412;-74
2023/06/02 09:55:37;;;;;;;8.23;5.35;;;20.50;40.60;;;;;;5060166;28;20412;-75
2023/06/02 09:58:05;;;;;;;11.10;5.78;;;20.80;40.00;;;;;;5065402;28;20433;-76
2023/06/02 10:00:32;;;;;;;6.88;5.03;;;21.00;39.10;;;;;;5047496;28;20436;-74
2023/06/02 10:03:00;;;;;;;6.73;5.03;;;21.20;38.40;;;;;;5049448;28;20492;-75
2023/06/02 10:05:28;;;;;;;5.90;5.20;;;21.30;38.40;;;;;;5049951;28;20440;-75
2023/06/02 10:08:10;;;;;;;8.23;5.38;;;21.60;37.90;;;;;;5049030;28;20429;-74
2023/06/02 10:10:50;;;;;;;8.32;5.20;;;21.80;37.10;;;;;;5066649;28;20425;-74
2023/06/02 10:13:33;;;;;;;6.80;4.70;;;22.00;37.50;;;;;;5050851;28;20513;-74
2023/06/02 10:16:12;;;;;;;6.85;4.72;;;22.20;36.80;;;;;;5054809;28;20422;-74
2023/06/02 10:19:09;;;;;;;6.07;4.57;;;22.20;36.90;;;;;;5046841;28;20436;-76
2023/06/02 10:21:48;;;;;;;7.38;5.20;;;22.40;36.30;;;;;;5070272;28;20412;-73
2023/06/02 10:24:28;;;;;;;5.55;4.80;;;22.40;36.00;;;;;;5063326;28;20470;-74
2023/06/02 10:27:12;;;;;;;6.65;4.85;;;22.50;36.20;;;;;;5046114;28;20420;-75
2023/06/02 10:29:39;;;;;;;8.27;5.20;;;22.50;35.40;;;;;;5049931;28;20429;-76
2023/06/02 10:32:23;;;;;;;6.03;5.10;;;22.30;35.80;;;;;;5055235;28;20435;-74
2023/06/02 10:34:50;;;;;;;7.22;5.63;;;22.30;36.50;;;;;;5055897;28;20895;-75
2023/06/02 10:37:18;;;;;;;6.50;5.10;;;22.40;35.60;;;;;;5043670;28;20411;-75
2023/06/02 10:39:52;;;;;;;7.03;5.30;;;22.50;35.80;;;;;;5055204;28;20807;-76
2023/06/02 10:42:20;;;;;;;6.95;5.40;;;22.40;35.40;;;;;;5049619;28;20435;-75
2023/06/02 10:44:48;;;;;;;7.90;5.70;;;22.50;36.30;;;;;;5048222;28;20464;-74
2023/06/02 10:47:36;;;;;;;6.10;5.00;;;22.70;35.30;;;;;;5061672;28;20548;-73
2023/06/02 10:50:06;;;;;;;5.70;5.10;;;22.80;34.80;;;;;;5045660;28;20422;-76
2023/06/02 10:52:34;;;;;;;7.32;5.50;;;22.90;34.80;;;;;;5049401;28;20420;-74
2023/06/02 10:55:28;;;;;;;7.30;5.50;;;23.00;34.90;;;;;;5050742;28;20452;-75
2023/06/02 10:57:57;;;;;;;7.30;5.47;;;23.10;34.50;;;;;;5037094;28;22912;-74
2023/06/02 11:00:46;;;;;;;8.52;5.30;;;23.10;34.90;;;;;;5048891;28;20417;-75
2023/06/02 11:03:33;;;;;;;7.85;5.65;;;23.00;34.40;;;;;;5046138;28;20417;-74
2023/06/02 11:06:18;;;;;;;9.18;5.47;;;22.90;35.30;;;;;;5058446;28;20439;-75
2023/06/02 11:08:45;;;;;;;7.72;5.07;;;23.00;35.50;;;;;;5040868;28;20512;-76
2023/06/02 11:11:13;;;;;;;7.05;5.40;;;23.10;35.10;;;;;;5061467;28;20464;-76
2023/06/02 11:13:59;;;;;;;9.02;5.80;;;23.20;34.40;;;;;;5041077;28;20429;-76
2023/06/02 11:16:27;;;;;;;9.07;6.05;;;23.30;33.50;;;;;;5035633;28;20942;-76
2023/06/02 11:18:54;;;;;;;6.95;5.65;;;23.30;34.20;;;;;;5050252;28;20439;-75
2023/06/02 11:21:23;;;;;;;7.60;6.50;;;23.40;34.40;;;;;;5048610;28;20567;-74
2023/06/02 11:23:50;;;;;;;7.57;5.25;;;23.50;34.10;;;;;;5049483;28;20490;-74
2023/06/02 11:26:19;;;;;;;6.18;5.57;;;23.50;33.90;;;;;;5054108;28;20440;-76
2023/06/02 11:28:46;;;;;;;6.72;5.30;;;23.60;32.90;;;;;;5048968;28;20437;-74
2023/06/02 11:31:14;;;;;;;6.78;5.55;;;23.60;33.30;;;;;;5048686;28;20413;-75
2023/06/02 11:33:47;;;;;;;7.45;5.30;;;23.60;33.20;;;;;;5062220;28;20420;-76
2023/06/02 11:36:15;;;;;;;8.50;5.43;;;23.80;32.60;;;;;;5047966;28;20452;-76
2023/06/02 11:38:42;;;;;;;6.35;5.30;;;23.90;32.90;;;;;;5051692;28;20915;-73
2023/06/02 11:41:10;;;;;;;7.90;5.10;;;24.00;33.10;;;;;;5050496;28;20436;-74
2023/06/02 11:43:38;;;;;;;6.82;5.30;;;24.30;32.70;;;;;;5046502;28;20413;-76
2023/06/02 11:46:08;;;;;;;7.43;5.50;;;24.50;31.50;;;;;;5043726;28;20435;-75
2023/06/02 11:48:38;;;;;;;9.77;6.28;;;24.80;31.80;;;;;;5044321;28;20795;-75
2023/06/02 11:51:05;;;;;;;6.40;5.70;;;25.10;30.30;;;;;;5057248;28;20417;-75
2023/06/02 11:53:32;;;;;;;7.40;6.00;;;25.00;30.50;;;;;;5058532;28;20423;-74
2023/06/02 11:55:59;;;;;;;6.80;5.97;;;24.90;30.70;;;;;;5051838;28;20696;-77
2023/06/02 11:58:27;;;;;;;7.30;6.00;;;25.00;30.30;;;;;;5062219;28;21047;-75
2023/06/02 12:01:06;;;;;;;6.68;5.97;;;25.00;30.10;;;;;;5064098;28;20791;-75
2023/06/02 12:03:33;;;;;;;6.25;5.60;;;25.20;30.10;;;;;;5048748;28;20459;-74
2023/06/02 12:06:08;;;;;;;6.22;5.63;;;25.20;29.70;;;;;;5051721;28;20511;-74
2023/06/02 12:08:35;;;;;;;7.18;5.60;;;25.30;29.70;;;;;;5040665;28;20485;-76
2023/06/02 12:11:02;;;;;;;7.95;6.00;;;25.30;29.60;;;;;;5065528;28;20788;-74
2023/06/02 12:13:30;;;;;;;7.30;5.35;;;25.40;29.20;;;;;;5059069;28;20425;-74
2023/06/02 12:16:20;;;;;;;6.00;4.67;;;25.40;29.40;;;;;;5055235;28;20445;-77
2023/06/02 12:18:47;;;;;;;12.27;5.00;;;25.50;29.70;;;;;;5044055;28;20919;-74
2023/06/02 12:21:26;;;;;;;7.47;4.85;;;25.90;29.60;;;;;;5060636;28;20484;-75
2023/06/02 12:23:53;;;;;;;6.40;4.80;;;26.10;28.70;;;;;;5055498;28;20955;-75
2023/06/02 12:26:21;;;;;;;6.45;4.95;;;26.00;28.90;;;;;;5062920;28;20445;-76
2023/06/02 12:28:49;;;;;;;8.60;5.30;;;26.00;29.40;;;;;;5058691;28;20423;-75
2023/06/02 12:31:16;;;;;;;6.30;4.60;;;26.10;29.30;;;;;;5063354;28;20419;-77
2023/06/02 12:33:45;;;;;;;5.43;4.20;;;26.20;28.90;;;;;;5069134;28;20418;-74
2023/06/02 12:36:12;;;;;;;6.40;4.28;;;26.30;28.80;;;;;;5053442;28;20441;-77
2023/06/02 12:38:40;;;;;;;5.72;3.78;;;26.40;28.60;;;;;;5066484;28;20428;-76
2023/06/02 12:41:11;;;;;;;5.40;4.65;;;26.70;28.20;;;;;;5049992;28;20529;-75
2023/06/02 12:43:38;;;;;;;5.78;3.40;;;27.00;27.80;;;;;;5055896;28;20429;-75
2023/06/02 12:46:06;;;;;;;8.63;3.10;;;27.30;27.30;;;;;;5040477;28;20450;-75
2023/06/02 12:48:32;;;;;;;5.30;3.50;;;27.80;27.80;;;;;;5042045;28;20478;-77
2023/06/02 12:51:01;;;;;;;5.05;3.10;;;28.30;27.00;;;;;;5052762;28;20433;-75
2023/06/02 12:53:27;;;;;;;3.85;3.10;;;28.60;25.70;;;;;;5067181;28;20419;-76